Lone Rock, WI (53556)

11:00 PM CDT on July 28, 2015 (GMT -0500)
Tri-County Regional | | Change Station
CLOSE
Current Station
Airport
Location: Lone Rock,
Elevation: 719 ft
Nearby Weather Stations

Elev 719 ft 43.21 °N, 90.18 °W | Updated 4 minutes ago

Scattered Clouds
Scattered Clouds
73 °F
Feels Like 73 °F
N
0
Wind Variable Wind from North

Today
High -- | Low -- °F
--% Chance of Precip.
Yesterday
High -- | Low -- °F
Precip. -- in
5:46 AM 8:27 PM
Waxing Gibbous, 93% visible
Pressure 29.92 in
Visibility 10.0 miles
Clouds Scattered Clouds 5500 ft
Dew Point 70 °F
Humidity 90%
Rainfall 0.01 in
Snow Depth Not available.
UV 0 out of 12
Pollen 6.50 out of 12
Air Quality Not available.
Flu Activity Not available.
METAR KLNR 290356Z AUTO 00000KT 10SM SCT055 23/21 A2995 RMK AO2 SLP132 T02280211

More Conditions Fewer Conditions

Pressure 29.92 in
Visibility 10.0 miles
Clouds Scattered Clouds 5500 ft
Dew Point 70 °F
Humidity 90%
Rainfall 0.01 in
Snow Depth Not available.
UV 0 out of 12
Pollen 6.50 out of 12
Air Quality Not available.
Flu Activity Not available.
METAR KLNR 290356Z AUTO 00000KT 10SM SCT055 23/21 A2995 RMK AO2 SLP132 T02280211

More Conditions Fewer Conditions

10-Day Weather Forecast

×

Almanac

Astronomy

Jul. 28, 2015 Rise Set
Actual Time
Civil Twilight
Nautical Twilight
Astronomical Twilight
Moon
Length of Visible Light
Length of Day
Tomorrow will be .
, % of the Moon is Illuminated

Today's Extremes

State Highs State Lows

Community

WunderPhotos

Upload Photos

1,842,039 photos uploaded!

WunderBlogs® & News

Nearby

Air Quality

  Air Quality AQ Index Pollutant
Not available.

Snow Depth

Station Depth Elevation

Earthquake Activity

City Distance Mag. Time & Date
Minimum magnitude displayed is 2.5.

Coastal Water Temperatures

Place Temperature

Stations

Nearby Weather Stations

Station Location Temp. Windchill Dew Point Humidity Wind Precip. Elev Updated Type